createdAt,value
2023-11-13T00:02:10.428Z,98076.34
2023-11-13T00:04:37.894Z,98058.84
2023-11-13T00:07:04.783Z,98066.09
2023-11-13T00:09:31.337Z,98058.03
2023-11-13T00:11:58.003Z,98066.63
2023-11-13T00:14:24.687Z,98065.03
2023-11-13T00:16:51.539Z,98060.44
2023-11-13T00:19:18.486Z,98059.09
2023-11-13T00:21:45.212Z,98051.28
2023-11-13T00:24:13.480Z,98042.41
2023-11-13T00:26:40.486Z,98038.91
2023-11-13T00:29:08.207Z,98033.00
2023-11-13T00:31:34.768Z,98021.72
2023-11-13T00:34:01.281Z,98019.03
2023-11-13T00:36:27.921Z,98024.69
2023-11-13T00:38:54.479Z,98025.47
2023-11-13T00:41:20.903Z,98026.31
2023-11-13T00:43:47.347Z,98049.44
2023-11-13T00:46:15.334Z,98034.91
2023-11-13T00:48:41.905Z,98034.34
2023-11-13T00:51:10.041Z,98019.78
2023-11-13T00:53:40.184Z,98018.19
2023-11-13T00:56:08.167Z,98008.22
2023-11-13T00:58:36.540Z,98003.66
2023-11-13T01:01:08.429Z,98014.41
2023-11-13T01:03:35.581Z,98005.28
2023-11-13T01:06:03.813Z,98011.47
2023-11-13T01:08:30.523Z,98013.88
2023-11-13T01:10:57.290Z,98012.50
2023-11-13T01:13:24.004Z,98010.91
2023-11-13T01:15:50.914Z,98011.19
2023-11-13T01:18:21.143Z,98015.47
2023-11-13T01:20:48.460Z,98009.00
2023-11-13T01:23:15.655Z,98008.72
2023-11-13T01:25:45.158Z,98005.78
2023-11-13T01:28:12.884Z,98007.41
2023-11-13T01:30:39.330Z,98012.50
2023-11-13T01:33:05.882Z,98003.63
2023-11-13T01:35:32.397Z,98006.81
2023-11-13T01:37:59.016Z,97988.28
2023-11-13T01:40:25.535Z,97983.69
2023-11-13T01:42:52.209Z,97972.63
2023-11-13T01:45:18.703Z,97970.75
2023-11-13T01:47:47.187Z,97969.66
2023-11-13T01:50:15.148Z,97965.13
2023-11-13T01:52:43.853Z,97962.41
2023-11-13T01:55:13.366Z,97968.59
2023-11-13T01:57:41.654Z,97969.41
2023-11-13T02:00:09.459Z,97984.19
2023-11-13T02:02:36.406Z,97975.03
2023-11-13T02:05:03.106Z,97965.06
2023-11-13T02:07:29.863Z,97966.91
2023-11-13T02:09:56.385Z,97960.44
2023-11-13T02:12:23.659Z,97957.22
2023-11-13T02:14:50.580Z,97970.63
2023-11-13T02:17:17.194Z,97974.38
2023-11-13T02:19:46.894Z,97960.34
2023-11-13T02:22:13.606Z,97949.53
2023-11-13T02:24:40.256Z,97971.28
2023-11-13T02:27:08.374Z,97931.66
2023-11-13T02:29:35.006Z,97920.81
2023-11-13T02:32:02.285Z,97913.56
2023-11-13T02:34:31.755Z,97921.34
2023-11-13T02:36:58.290Z,97915.41
2023-11-13T02:39:24.799Z,97907.03
2023-11-13T02:41:52.780Z,97920.22
2023-11-13T02:44:20.362Z,97919.66
2023-11-13T02:46:47.070Z,97920.72
2023-11-13T02:49:14.421Z,97907.53
2023-11-13T02:51:42.934Z,97903.53
2023-11-13T02:54:09.861Z,97898.44
2023-11-13T02:56:36.379Z,97894.94
2023-11-13T02:59:03.053Z,97906.22
2023-11-13T03:01:30.350Z,97897.34
2023-11-13T03:03:58.179Z,97890.63
2023-11-13T03:06:24.753Z,97892.25
2023-11-13T03:08:51.190Z,97896.53
2023-11-13T03:11:17.706Z,97903.03
2023-11-13T03:13:44.390Z,97903.81
2023-11-13T03:16:11.182Z,97904.63
2023-11-13T03:18:37.851Z,97903.03
2023-11-13T03:21:05.298Z,97907.03
2023-11-13T03:23:31.731Z,97921.81
2023-11-13T03:26:01.408Z,97915.28
2023-11-13T03:28:28.109Z,97920.94
2023-11-13T03:30:54.600Z,97926.53
2023-11-13T03:33:24.456Z,97928.06
2023-11-13T03:35:51.170Z,97913.16
2023-11-13T03:38:17.722Z,97912.31
2023-11-13T03:40:44.861Z,97919.81
2023-11-13T03:43:11.313Z,97920.31
2023-11-13T03:45:37.701Z,97914.38
2023-11-13T03:48:04.601Z,97925.66
2023-11-13T03:50:31.038Z,97932.94
2023-11-13T03:52:57.482Z,97945.03
2023-11-13T03:55:24.086Z,97934.00
2023-11-13T03:57:50.598Z,97941.28
2023-11-13T04:00:17.410Z,97942.88
2023-11-13T04:02:47.924Z,97946.66
2023-11-13T04:05:14.569Z,97941.28
2023-11-13T04:07:41.070Z,97945.84
2023-11-13T04:10:14.428Z,97943.38
2023-11-13T04:12:43.843Z,97959.84
2023-11-13T04:15:11.714Z,97962.47
2023-11-13T04:17:38.350Z,97959.19
2023-11-13T04:20:08.440Z,97958.81
2023-11-13T04:22:35.438Z,97964.94
2023-11-13T04:25:03.235Z,97969.78
2023-11-13T04:27:30.400Z,97978.16
2023-11-13T04:29:57.339Z,97978.66
2023-11-13T04:32:25.053Z,97983.78
2023-11-13T04:34:52.139Z,97978.63
2023-11-13T04:37:20.004Z,97969.38
2023-11-13T04:39:47.109Z,97972.00
2023-11-13T04:42:13.679Z,97980.84
2023-11-13T04:44:40.133Z,97976.47
2023-11-13T04:47:07.492Z,97973.47
2023-11-13T04:49:34.969Z,97984.28
2023-11-13T04:52:01.482Z,97978.28
2023-11-13T04:54:27.952Z,97976.56
2023-11-13T04:56:56.613Z,97968.13
2023-11-13T04:59:23.202Z,97968.25
2023-11-13T05:01:50.749Z,97967.91
2023-11-13T05:04:17.690Z,97975.13
2023-11-13T05:06:44.506Z,97984.53
2023-11-13T05:09:11.008Z,97985.34
2023-11-13T05:11:37.930Z,97977.53
2023-11-13T05:14:04.547Z,97985.34
2023-11-13T05:16:31.226Z,97979.94
2023-11-13T05:18:58.079Z,97986.41
2023-11-13T05:21:24.957Z,97982.59
2023-11-13T05:23:51.441Z,97987.50
2023-11-13T05:26:19.053Z,97981.00
2023-11-13T05:28:45.783Z,97991.81
2023-11-13T05:31:12.321Z,97980.19
2023-11-13T05:33:38.984Z,97978.56
2023-11-13T05:36:05.754Z,97971.78
2023-11-13T05:38:32.481Z,97975.81
2023-11-13T05:40:59.013Z,97979.31
2023-11-13T05:43:25.728Z,97990.09
2023-11-13T05:45:52.286Z,97988.50
2023-11-13T05:48:18.973Z,97987.41
2023-11-13T05:50:45.403Z,97991.22
2023-11-13T05:53:11.854Z,97996.03
2023-11-13T05:55:39.461Z,97991.44
2023-11-13T05:58:06.075Z,97993.84
2023-11-13T06:00:33.450Z,97984.63
2023-11-13T06:02:59.989Z,97989.75
2023-11-13T06:05:26.676Z,97990.28
2023-11-13T06:07:54.476Z,97992.38
2023-11-13T06:10:21.661Z,98001.28
2023-11-13T06:12:48.263Z,97995.28
2023-11-13T06:15:15.107Z,97993.09
2023-11-13T06:17:42.836Z,97993.09
2023-11-13T06:20:10.922Z,97992.00
2023-11-13T06:22:37.475Z,98001.72
2023-11-13T06:25:05.477Z,98002.81
2023-11-13T06:27:32.016Z,98018.22
2023-11-13T06:29:58.529Z,98020.13
2023-11-13T06:32:25.294Z,98020.13
2023-11-13T06:34:51.752Z,98020.13
2023-11-13T06:37:18.258Z,98030.94
2023-11-13T06:39:45.422Z,98024.44
2023-11-13T06:42:11.868Z,98020.63
2023-11-13T06:44:39.734Z,98016.31
2023-11-13T06:47:06.925Z,98009.09
2023-11-13T06:49:33.517Z,98009.88
2023-11-13T06:51:59.976Z,98009.31
2023-11-13T06:54:26.571Z,98006.91
2023-11-13T06:56:52.974Z,98007.47
2023-11-13T06:59:19.875Z,98010.47
2023-11-13T07:01:46.461Z,98010.47
2023-11-13T07:04:13.198Z,98022.38
2023-11-13T07:06:40.795Z,98024.56
2023-11-13T07:09:12.584Z,98030.50
2023-11-13T07:11:48.829Z,98035.91
2023-11-13T07:14:19.421Z,98044.50
2023-11-13T07:16:46.025Z,98051.50
2023-11-13T07:19:15.498Z,98058.50
2023-11-13T07:21:42.320Z,98051.50
2023-11-13T07:24:13.749Z,98046.41
2023-11-13T07:26:40.742Z,98058.81
2023-11-13T07:29:07.263Z,98061.75
2023-11-13T07:31:34.116Z,98050.66
2023-11-13T07:34:00.679Z,98059.25
2023-11-13T07:36:27.587Z,98054.16
2023-11-13T07:38:54.068Z,98057.94
2023-11-13T07:41:20.666Z,98057.94
2023-11-13T07:43:49.830Z,98061.16
2023-11-13T07:46:19.356Z,98053.56
2023-11-13T07:48:46.104Z,98052.47
2023-11-13T07:51:12.589Z,98046.78
2023-11-13T07:53:39.645Z,98045.97
2023-11-13T07:56:06.680Z,98040.56
2023-11-13T07:58:33.342Z,98052.69
2023-11-13T08:00:59.828Z,98052.38
2023-11-13T08:03:27.168Z,98060.44
2023-11-13T08:05:54.038Z,98065.84
2023-11-13T08:08:20.779Z,98068.53
2023-11-13T08:10:48.447Z,98062.31
2023-11-13T08:13:15.820Z,98066.13
2023-11-13T08:15:46.399Z,98057.50
2023-11-13T08:18:16.244Z,98066.44
2023-11-13T08:20:47.580Z,98081.53
2023-11-13T08:23:15.829Z,98072.03
2023-11-13T08:25:43.701Z,98078.47
2023-11-13T08:28:10.739Z,98070.06
2023-11-13T08:30:37.694Z,98072.16
2023-11-13T08:33:05.284Z,98060.25
2023-11-13T08:35:35.129Z,98061.09
2023-11-13T08:38:02.282Z,98054.34
2023-11-13T08:40:30.388Z,98067.00
2023-11-13T08:43:00.253Z,98065.09
2023-11-13T08:45:28.279Z,98046.19
2023-11-13T08:47:55.501Z,98049.38
2023-11-13T08:50:23.418Z,98051.50
2023-11-13T08:52:51.545Z,98037.38
2023-11-13T08:55:19.480Z,98015.19
2023-11-13T08:57:47.636Z,98056.75
2023-11-13T09:00:23.128Z,98048.56
2023-11-13T09:02:51.732Z,98031.22
2023-11-13T09:05:20.802Z,98015.00
2023-11-13T09:07:47.560Z,98002.91
2023-11-13T09:10:17.290Z,97992.34
2023-11-13T09:12:45.307Z,97997.25
2023-11-13T09:15:14.943Z,97993.25
2023-11-13T09:17:49.090Z,97994.06
2023-11-13T09:20:20.527Z,97994.06
2023-11-13T09:22:48.084Z,97991.84
2023-11-13T09:25:15.444Z,97977.22
2023-11-13T09:27:46.411Z,97986.38
2023-11-13T09:30:15.947Z,97975.06
2023-11-13T09:32:46.299Z,97976.66
2023-11-13T09:35:22.486Z,97971.44
2023-11-13T09:37:50.504Z,97973.03
2023-11-13T09:40:18.942Z,97985.50
2023-11-13T09:42:56.921Z,97970.25
2023-11-13T09:45:24.076Z,97978.59
2023-11-13T09:48:01.765Z,97980.91
2023-11-13T09:50:28.991Z,97967.00
2023-11-13T09:53:01.687Z,97963.38
2023-11-13T09:55:29.896Z,97953.88
2023-11-13T09:57:57.317Z,97960.28
2023-11-13T10:00:25.621Z,97934.22
2023-11-13T10:02:54.704Z,97930.41
2023-11-13T10:05:23.280Z,97919.59
2023-11-13T10:07:53.512Z,97928.72
2023-11-13T10:10:32.278Z,97918.41
2023-11-13T10:13:02.700Z,97918.88
2023-11-13T10:15:31.178Z,97924.00
2023-11-13T10:17:59.654Z,97924.50
2023-11-13T10:20:27.697Z,97921.41
2023-11-13T10:23:04.887Z,97916.00
2023-11-13T10:25:37.179Z,97915.59
2023-11-13T10:28:03.862Z,97914.66
2023-11-13T10:30:31.533Z,97905.94
2023-11-13T10:32:59.083Z,97909.34
2023-11-13T10:35:37.543Z,97907.94
2023-11-13T10:38:09.387Z,97901.91
2023-11-13T10:40:40.336Z,97895.88
2023-11-13T10:43:08.835Z,97894.28
2023-11-13T10:45:35.563Z,97885.53
2023-11-13T10:48:02.459Z,97875.72
2023-11-13T10:50:30.542Z,97864.75
2023-11-13T10:52:57.976Z,97852.19
2023-11-13T10:55:25.397Z,97851.47
2023-11-13T10:57:51.973Z,97849.16
2023-11-13T11:00:18.945Z,97850.63
2023-11-13T11:02:47.051Z,97848.19
2023-11-13T11:05:30.048Z,97839.94
2023-11-13T11:07:57.290Z,97849.53
2023-11-13T11:10:26.155Z,97851.59
2023-11-13T11:13:10.297Z,97851.50
2023-11-13T11:15:50.605Z,97850.69
2023-11-13T11:18:29.009Z,97836.69
2023-11-13T11:21:01.384Z,97836.53
2023-11-13T11:23:35.593Z,97833.22
2023-11-13T11:26:02.877Z,97835.31
2023-11-13T11:28:44.405Z,97841.06
2023-11-13T11:31:35.226Z,97841.63
2023-11-13T11:34:02.388Z,97838.78
2023-11-13T11:36:37.722Z,97829.53
2023-11-13T11:39:24.851Z,97831.78
2023-11-13T11:41:55.394Z,97821.75
2023-11-13T11:44:29.208Z,97825.31
2023-11-13T11:47:04.633Z,97812.56
2023-11-13T11:49:44.256Z,97809.22
2023-11-13T11:52:12.397Z,97796.13
2023-11-13T11:54:39.389Z,97794.19
2023-11-13T11:57:08.760Z,97777.75
2023-11-13T11:59:37.122Z,97772.53
2023-11-13T12:02:05.216Z,97758.16
2023-11-13T12:04:32.127Z,97764.06
2023-11-13T12:07:10.082Z,97753.19
2023-11-13T12:09:40.289Z,97746.16
2023-11-13T12:12:06.994Z,97752.06
2023-11-13T12:14:33.439Z,97769.97
2023-11-13T12:17:00.095Z,97749.34
2023-11-13T12:19:26.824Z,97738.66
2023-11-13T12:21:53.570Z,97738.47
2023-11-13T12:24:20.581Z,97732.88
2023-11-13T12:26:47.516Z,97726.81
2023-11-13T12:29:18.546Z,97737.38
2023-11-13T12:31:52.279Z,97738.97
2023-11-13T12:34:19.635Z,97740.88
2023-11-13T12:36:50.960Z,97741.50
2023-11-13T12:39:23.902Z,97742.16
2023-11-13T12:41:53.930Z,97721.22
2023-11-13T12:44:26.849Z,97716.59
2023-11-13T12:46:56.289Z,97717.38
2023-11-13T12:49:23.193Z,97708.28
2023-11-13T12:51:50.373Z,97707.94
2023-11-13T12:54:17.468Z,97712.59
2023-11-13T12:56:49.116Z,97718.66
2023-11-13T12:59:19.181Z,97709.84
2023-11-13T13:01:47.158Z,97712.22
2023-11-13T13:04:16.703Z,97698.44
2023-11-13T13:06:44.537Z,97687.41
2023-11-13T13:09:13.239Z,97677.97
2023-11-13T13:11:41.985Z,97667.72
2023-11-13T13:14:09.653Z,97666.41
2023-11-13T13:16:38.075Z,97673.09
2023-11-13T13:19:10.392Z,97669.25
2023-11-13T13:21:37.579Z,97658.38
2023-11-13T13:24:07.759Z,97649.59
2023-11-13T13:26:37.570Z,97658.31
2023-11-13T13:29:05.169Z,97644.09
2023-11-13T13:31:33.110Z,97651.28
2023-11-13T13:34:00.085Z,97645.78
2023-11-13T13:36:26.545Z,97651.81
2023-11-13T13:38:53.468Z,97646.84
2023-11-13T13:41:22.992Z,97653.41
2023-11-13T13:43:50.910Z,97644.41
2023-11-13T13:46:18.611Z,97634.47
2023-11-13T13:48:48.970Z,97644.34
2023-11-13T13:51:16.833Z,97645.72
2023-11-13T13:53:44.053Z,97643.63
2023-11-13T13:56:19.415Z,97642.16
2023-11-13T13:58:48.356Z,97641.84
2023-11-13T14:01:15.106Z,97639.25
2023-11-13T14:03:42.291Z,97631.75
2023-11-13T14:06:13.483Z,97635.91
2023-11-13T14:08:41.315Z,97646.28
2023-11-13T14:11:08.313Z,97657.66
2023-11-13T14:13:35.634Z,97649.78
2023-11-13T14:16:08.064Z,97651.34
2023-11-13T14:18:38.553Z,97654.00
2023-11-13T14:21:06.883Z,97650.94
2023-11-13T14:23:33.414Z,97657.06
2023-11-13T14:26:00.122Z,97648.09
2023-11-13T14:28:27.287Z,97652.53
2023-11-13T14:30:56.372Z,97654.16
2023-11-13T14:33:23.916Z,97661.19
2023-11-13T14:35:50.803Z,97659.69
2023-11-13T14:38:17.507Z,97666.63
2023-11-13T14:40:44.044Z,97664.22
2023-11-13T14:43:10.939Z,97657.19
2023-11-13T14:45:39.236Z,97661.81
2023-11-13T14:48:05.888Z,97658.50
2023-11-13T14:50:32.459Z,97658.50
2023-11-13T14:52:59.238Z,97656.56
2023-11-13T14:55:26.108Z,97658.50
2023-11-13T14:57:53.592Z,97646.25
2023-11-13T15:00:21.981Z,97648.97
2023-11-13T15:02:50.713Z,97651.88
2023-11-13T15:05:18.529Z,97657.34
2023-11-13T15:07:45.452Z,97652.53
2023-11-13T15:10:14.412Z,97642.94
2023-11-13T15:12:41.658Z,97635.44
2023-11-13T15:15:09.527Z,97645.34
2023-11-13T15:17:42.821Z,97640.06
2023-11-13T15:20:13.604Z,97641.19
2023-11-13T15:23:01.117Z,97648.22
2023-11-13T15:25:29.836Z,97647.88
2023-11-13T15:27:56.680Z,97647.56
2023-11-13T15:30:23.641Z,97648.81
2023-11-13T15:32:51.187Z,97647.22
2023-11-13T15:35:21.635Z,97645.56
2023-11-13T15:37:48.241Z,97648.41
2023-11-13T15:40:16.226Z,97653.06
2023-11-13T15:42:43.321Z,97643.09
2023-11-13T15:45:12.411Z,97630.63
2023-11-13T15:47:39.946Z,97625.19
2023-11-13T15:50:17.689Z,97627.44
2023-11-13T15:52:44.461Z,97617.34
2023-11-13T15:55:15.535Z,97608.84
2023-11-13T15:57:42.155Z,97603.84
2023-11-13T16:00:13.006Z,97597.97
2023-11-13T16:02:42.335Z,97589.44
2023-11-13T16:05:10.398Z,97582.41
2023-11-13T16:07:37.412Z,97579.56
2023-11-13T16:10:04.996Z,97574.44
2023-11-13T16:12:32.364Z,97583.91
2023-11-13T16:15:04.856Z,97576.38
2023-11-13T16:20:14.464Z,97560.00
2023-11-13T16:22:44.066Z,97554.53
2023-11-13T16:25:10.855Z,97559.34
2023-11-13T16:27:38.602Z,97538.94
2023-11-13T16:30:07.254Z,97541.78
2023-11-13T16:32:34.521Z,97524.66
2023-11-13T16:35:01.857Z,97532.38
2023-11-13T16:37:28.785Z,97539.59
2023-11-13T16:39:56.564Z,97538.16
2023-11-13T16:42:23.361Z,97526.25
2023-11-13T16:45:42.093Z,97509.50
2023-11-13T17:16:47.160Z,97580.81
2023-11-13T17:19:47.972Z,97577.00
2023-11-13T17:22:15.644Z,97586.41
2023-11-13T17:36:04.136Z,97540.66
2023-11-13T17:38:31.181Z,97549.47
2023-11-13T17:41:01.665Z,97544.28
2023-11-13T17:43:28.803Z,97539.63
2023-11-13T17:45:58.390Z,97557.00
2023-11-13T17:48:25.336Z,97577.66
2023-11-13T17:50:52.055Z,97568.09
2023-11-13T17:53:18.759Z,97564.94
2023-11-13T17:55:45.406Z,97577.19
2023-11-13T17:58:11.935Z,97569.72
2023-11-13T18:00:38.504Z,97557.00
2023-11-13T18:03:05.175Z,97561.31
2023-11-13T18:05:31.771Z,97570.16
2023-11-13T18:07:58.586Z,97574.03
2023-11-13T18:22:49.994Z,97575.63
2023-11-13T18:25:17.354Z,97579.28
2023-11-13T18:27:45.829Z,97565.88
2023-11-13T18:30:13.675Z,97558.59
2023-11-13T18:32:40.384Z,97552.56
2023-11-13T18:35:07.984Z,97555.28
2023-11-13T18:37:36.253Z,97553.72
2023-11-13T18:40:02.972Z,97563.47
2023-11-13T18:42:30.219Z,97561.13
2023-11-13T18:44:56.971Z,97569.72
2023-11-13T18:47:23.596Z,97564.72
2023-11-13T18:49:50.987Z,97571.78
2023-11-13T18:52:17.920Z,97579.28
2023-11-13T18:54:45.578Z,97570.97
2023-11-13T18:57:12.788Z,97566.56
2023-11-13T18:59:39.392Z,97554.38
2023-11-13T19:02:07.519Z,97553.25
2023-11-13T19:04:34.107Z,97555.19
2023-11-13T19:07:00.775Z,97549.28
2023-11-13T19:09:27.621Z,97553.16
2023-11-13T19:11:54.109Z,97565.78
2023-11-13T19:14:21.027Z,97562.69
2023-11-13T19:16:47.713Z,97558.63
2023-11-13T19:19:14.768Z,97556.78
2023-11-13T19:21:41.268Z,97559.41
2023-11-13T19:24:10.014Z,97557.34
2023-11-13T19:26:36.529Z,97569.03
2023-11-13T19:29:03.228Z,97581.09
2023-11-13T19:31:29.826Z,97580.41
2023-11-13T19:33:56.290Z,97573.84
2023-11-13T19:36:27.027Z,97587.81
2023-11-13T19:38:53.544Z,97589.50
2023-11-13T19:41:20.797Z,97608.56
2023-11-13T19:43:47.631Z,97614.03
2023-11-13T19:46:15.652Z,97615.16
2023-11-13T19:48:44.241Z,97619.81
2023-11-13T19:51:11.475Z,97608.13
2023-11-13T19:53:38.025Z,97616.75
2023-11-13T19:56:04.765Z,97624.59
2023-11-13T19:58:31.368Z,97615.28
2023-11-13T20:00:57.829Z,97621.06
2023-11-13T20:03:25.710Z,97626.84
2023-11-13T20:05:53.622Z,97618.34
2023-11-13T20:08:20.327Z,97619.25
2023-11-13T20:10:46.845Z,97600.63
2023-11-13T20:13:13.623Z,97598.69
2023-11-13T20:15:40.053Z,97626.44
2023-11-13T20:18:07.723Z,97610.09
2023-11-13T20:20:36.439Z,97607.66
2023-11-13T20:23:03.552Z,97603.00
2023-11-13T20:25:32.041Z,97606.88
2023-11-13T20:28:00.328Z,97602.22
2023-11-13T20:30:26.850Z,97616.19
2023-11-13T20:32:53.554Z,97605.28
2023-11-13T20:35:20.325Z,97609.28
2023-11-13T20:37:46.864Z,97614.84
2023-11-13T20:40:13.613Z,97614.84
2023-11-13T20:42:40.158Z,97634.06
2023-11-13T20:45:07.731Z,97639.94
2023-11-13T20:47:37.378Z,97654.84
2023-11-13T20:50:05.343Z,97661.06
2023-11-13T20:52:32.181Z,97655.63
2023-11-13T20:54:59.748Z,97659.50
2023-11-13T20:57:29.988Z,97636.09
2023-11-13T20:59:56.742Z,97629.84
2023-11-13T21:02:23.288Z,97618.59
2023-11-13T21:04:49.865Z,97623.38
2023-11-13T21:07:16.380Z,97630.53
2023-11-13T21:09:42.858Z,97640.41
2023-11-13T21:12:10.696Z,97640.69
2023-11-13T21:14:38.237Z,97643.63
2023-11-13T21:17:04.891Z,97657.50
2023-11-13T21:19:32.688Z,97654.31
2023-11-13T21:21:59.366Z,97664.78
2023-11-13T21:24:25.984Z,97667.06
2023-11-13T21:26:52.953Z,97668.06
2023-11-13T21:29:19.901Z,97684.00
2023-11-13T21:31:46.849Z,97706.84
2023-11-13T21:34:13.456Z,97707.28
2023-11-13T21:36:39.925Z,97724.44
2023-11-13T21:39:09.351Z,97724.19
2023-11-13T21:41:36.147Z,97740.19
2023-11-13T21:44:02.778Z,97744.38
2023-11-13T21:46:29.379Z,97747.25
2023-11-13T21:48:56.935Z,97752.25
2023-11-13T21:51:23.419Z,97758.22
2023-11-13T21:53:49.840Z,97766.53
2023-11-13T21:56:16.214Z,97765.28
2023-11-13T21:58:42.619Z,97766.25
2023-11-13T22:01:12.237Z,97785.50
2023-11-13T22:03:40.896Z,97802.19
2023-11-13T22:06:07.684Z,97791.84
2023-11-13T22:08:34.151Z,97813.47
2023-11-13T22:11:00.792Z,97805.84
2023-11-13T22:13:27.289Z,97809.72
2023-11-13T22:15:54.497Z,97829.09
2023-11-13T22:18:21.248Z,97814.53
2023-11-13T22:20:47.683Z,97829.41
2023-11-13T22:23:14.977Z,97844.09
2023-11-13T22:25:41.498Z,97849.22
2023-11-13T22:28:08.005Z,97842.97
2023-11-13T22:30:34.895Z,97852.91
2023-11-13T22:33:01.566Z,97848.72
2023-11-13T22:35:28.073Z,97868.41
2023-11-13T22:37:54.769Z,97844.25
2023-11-13T22:40:21.918Z,97857.84
2023-11-13T22:42:48.387Z,97862.78
2023-11-13T22:45:14.815Z,97866.63
2023-11-13T22:47:41.420Z,97892.22
2023-11-13T22:50:08.548Z,97873.50
2023-11-13T22:52:35.182Z,97873.34
2023-11-13T22:55:01.819Z,97872.88
2023-11-13T22:57:30.005Z,97877.84
2023-11-13T22:59:56.658Z,97873.03
2023-11-13T23:02:23.470Z,97873.66
2023-11-13T23:04:51.841Z,97878.94
2023-11-13T23:07:18.782Z,97884.69
2023-11-13T23:09:46.498Z,97880.38
2023-11-13T23:12:13.198Z,97878.78
2023-11-13T23:14:40.002Z,97864.22
2023-11-13T23:17:07.090Z,97876.22
2023-11-13T23:19:33.989Z,97876.53
2023-11-13T23:22:04.499Z,97873.03
2023-11-13T23:24:33.047Z,97885.81
2023-11-13T23:27:01.439Z,97867.59
2023-11-13T23:29:28.476Z,97873.81
2023-11-13T23:31:55.351Z,97848.09
2023-11-13T23:34:21.888Z,97835.47
2023-11-13T23:36:49.703Z,97827.44
2023-11-13T23:39:17.555Z,97838.28
2023-11-13T23:41:44.333Z,97839.09
2023-11-13T23:44:11.911Z,97832.06
2023-11-13T23:46:39.935Z,97842.94
2023-11-13T23:49:07.372Z,97854.59
2023-11-13T23:51:33.990Z,97865.47
2023-11-13T23:54:01.236Z,97877.13
2023-11-13T23:56:28.482Z,97879.81
2023-11-13T23:58:57.222Z,97884.94
